createdAt,value
2023-04-16T00:00:35.649Z,10.13
2023-04-16T00:03:03.134Z,8.88
2023-04-16T00:05:30.654Z,13.55
2023-04-16T00:07:57.987Z,14.68
2023-04-16T00:10:25.289Z,11.70
2023-04-16T00:12:52.585Z,10.23
2023-04-16T00:15:19.985Z,9.15
2023-04-16T00:17:47.315Z,10.73
2023-04-16T00:20:14.670Z,8.27
2023-04-16T00:22:42.017Z,11.10
2023-04-16T00:25:09.832Z,10.65
2023-04-16T00:27:37.317Z,8.45
2023-04-16T00:30:05.030Z,8.93
2023-04-16T00:32:32.450Z,7.57
2023-04-16T00:34:59.834Z,11.20
2023-04-16T00:37:27.351Z,6.70
2023-04-16T00:39:54.769Z,7.47
2023-04-16T00:42:22.303Z,7.50
2023-04-16T00:44:49.634Z,9.75
2023-04-16T00:47:17.179Z,7.57
2023-04-16T00:49:44.722Z,7.88
2023-04-16T00:52:12.331Z,7.22
2023-04-16T00:54:40.333Z,7.38
2023-04-16T00:57:07.916Z,7.68
2023-04-16T00:59:35.351Z,7.28
2023-04-16T01:02:03.467Z,8.88
2023-04-16T01:04:31.428Z,10.02
2023-04-16T01:06:58.824Z,8.20
2023-04-16T01:09:26.294Z,12.20
2023-04-16T01:11:53.623Z,9.57
2023-04-16T01:14:21.025Z,13.05
2023-04-16T01:16:48.777Z,10.68
2023-04-16T01:19:16.120Z,10.30
2023-04-16T01:21:43.491Z,8.35
2023-04-16T01:24:10.902Z,9.40
2023-04-16T01:26:38.206Z,8.07
2023-04-16T01:29:05.913Z,11.45
2023-04-16T01:31:33.484Z,10.20
2023-04-16T01:34:07.810Z,9.60
2023-04-16T01:36:35.932Z,11.07
2023-04-16T01:39:03.366Z,7.38
2023-04-16T01:41:32.077Z,7.53
2023-04-16T01:43:59.411Z,8.35
2023-04-16T01:46:31.506Z,8.15
2023-04-16T01:48:59.018Z,8.25
2023-04-16T01:51:27.384Z,7.90
2023-04-16T01:53:55.319Z,7.60
2023-04-16T01:56:22.652Z,8.65
2023-04-16T01:58:50.185Z,12.93
2023-04-16T02:01:19.271Z,7.75
2023-04-16T02:03:48.262Z,8.05
2023-04-16T02:06:16.391Z,8.07
2023-04-16T02:08:43.814Z,7.30
2023-04-16T02:11:11.293Z,6.88
2023-04-16T02:13:38.766Z,8.25
2023-04-16T02:16:06.506Z,7.88
2023-04-16T02:19:00.032Z,8.88
2023-04-16T02:21:31.870Z,8.05
2023-04-16T02:23:59.246Z,8.73
2023-04-16T02:26:29.710Z,9.15
2023-04-16T02:29:01.574Z,9.45
2023-04-16T02:31:37.126Z,11.73
2023-04-16T02:34:05.548Z,7.93
2023-04-16T02:36:32.952Z,9.57
2023-04-16T02:39:00.395Z,9.10
2023-04-16T02:41:27.733Z,7.53
2023-04-16T02:43:55.133Z,7.38
2023-04-16T02:46:22.549Z,8.70
2023-04-16T02:48:50.872Z,11.00
2023-04-16T02:51:18.538Z,7.88
2023-04-16T02:53:46.162Z,9.73
2023-04-16T02:56:14.326Z,11.55
2023-04-16T02:58:41.776Z,8.32
2023-04-16T03:01:09.198Z,10.00
2023-04-16T03:03:36.782Z,10.80
2023-04-16T03:06:04.163Z,9.82
2023-04-16T03:08:31.454Z,10.13
2023-04-16T03:10:58.892Z,9.77
2023-04-16T03:13:26.273Z,10.00
2023-04-16T03:15:53.689Z,10.32
2023-04-16T03:18:21.164Z,9.98
2023-04-16T03:20:53.509Z,9.68
2023-04-16T03:23:21.125Z,10.43
2023-04-16T03:25:48.494Z,8.70
2023-04-16T03:28:18.752Z,9.05
2023-04-16T03:30:52.824Z,9.57
2023-04-16T03:33:20.728Z,8.95
2023-04-16T03:35:48.055Z,10.15
2023-04-16T03:38:15.623Z,10.75
2023-04-16T03:40:43.055Z,11.25
2023-04-16T03:43:10.523Z,8.70
2023-04-16T03:45:44.200Z,8.68
2023-04-16T03:48:12.256Z,10.23
2023-04-16T03:50:39.637Z,9.43
2023-04-16T03:53:09.518Z,8.82
2023-04-16T03:55:37.183Z,9.80
2023-04-16T03:58:04.961Z,9.23
2023-04-16T04:00:33.468Z,8.02
2023-04-16T04:03:07.711Z,9.77
2023-04-16T04:05:39.997Z,15.13
2023-04-16T04:08:09.573Z,10.95
2023-04-16T04:10:37.405Z,10.07
2023-04-16T04:13:07.351Z,11.68
2023-04-16T04:15:35.780Z,10.70
2023-04-16T04:18:05.806Z,13.98
2023-04-16T04:20:33.410Z,13.48
2023-04-16T04:23:02.121Z,12.98
2023-04-16T04:25:30.701Z,10.60
2023-04-16T04:27:58.970Z,13.18
2023-04-16T04:30:26.373Z,11.35
2023-04-16T04:32:54.985Z,13.20
2023-04-16T04:35:22.892Z,12.45
2023-04-16T04:37:50.498Z,9.80
2023-04-16T04:40:20.322Z,13.05
2023-04-16T04:42:47.746Z,12.05
2023-04-16T04:45:16.058Z,10.25
2023-04-16T04:47:43.542Z,11.52
2023-04-16T04:50:11.354Z,10.50
2023-04-16T04:52:38.948Z,10.90
2023-04-16T04:55:07.759Z,11.55
2023-04-16T04:57:35.932Z,12.30
2023-04-16T05:00:05.161Z,12.52
2023-04-16T05:02:40.850Z,11.18
2023-04-16T05:05:08.601Z,11.80
2023-04-16T05:07:36.247Z,12.68
2023-04-16T05:10:03.624Z,10.75
2023-04-16T05:12:31.067Z,10.90
2023-04-16T05:14:58.462Z,11.82
2023-04-16T05:17:25.936Z,13.57
2023-04-16T05:19:53.302Z,13.73
2023-04-16T05:22:20.956Z,12.77
2023-04-16T05:24:48.496Z,11.95
2023-04-16T05:27:16.230Z,10.50
2023-04-16T05:29:43.954Z,12.15
2023-04-16T05:32:11.471Z,10.90
2023-04-16T05:34:38.819Z,9.18
2023-04-16T05:37:06.168Z,9.05
2023-04-16T05:39:33.515Z,8.23
2023-04-16T05:42:01.034Z,10.68
2023-04-16T05:44:28.824Z,8.73
2023-04-16T05:46:56.184Z,9.95
2023-04-16T05:49:23.609Z,9.45
2023-04-16T05:51:51.193Z,9.25
2023-04-16T05:54:18.686Z,11.00
2023-04-16T05:56:45.965Z,13.95
2023-04-16T05:59:13.571Z,13.90
2023-04-16T06:01:40.926Z,12.48
2023-04-16T06:04:08.462Z,10.35
2023-04-16T06:06:37.371Z,13.60
2023-04-16T06:09:04.853Z,13.82
2023-04-16T06:11:32.909Z,14.38
2023-04-16T06:14:01.386Z,14.90
2023-04-16T06:16:28.789Z,23.83
2023-04-16T06:18:56.460Z,12.63
2023-04-16T06:21:23.898Z,12.07
2023-04-16T06:23:51.337Z,12.38
2023-04-16T06:26:18.773Z,13.45
2023-04-16T06:28:46.072Z,12.38
2023-04-16T06:31:13.436Z,12.00
2023-04-16T06:33:40.983Z,15.20
2023-04-16T06:36:08.346Z,13.30
2023-04-16T06:38:36.764Z,12.75
2023-04-16T06:41:04.390Z,16.80
2023-04-16T06:43:33.445Z,12.63
2023-04-16T06:46:01.033Z,14.75
2023-04-16T06:48:28.579Z,11.75
2023-04-16T06:50:56.294Z,10.52
2023-04-16T06:53:24.266Z,12.60
2023-04-16T06:55:52.196Z,12.02
2023-04-16T06:58:19.760Z,11.23
2023-04-16T07:00:47.182Z,9.85
2023-04-16T07:03:14.986Z,11.40
2023-04-16T07:05:42.487Z,9.90
2023-04-16T07:08:09.926Z,11.15
2023-04-16T07:10:37.357Z,10.70
2023-04-16T07:13:04.755Z,10.70
2023-04-16T07:15:32.092Z,11.68
2023-04-16T07:17:59.574Z,9.80
2023-04-16T07:20:27.141Z,10.38
2023-04-16T07:22:54.892Z,9.35
2023-04-16T07:25:22.284Z,10.55
2023-04-16T07:27:49.660Z,10.70
2023-04-16T07:30:17.142Z,10.52
2023-04-16T07:32:44.668Z,8.93
2023-04-16T07:35:12.004Z,11.55
2023-04-16T07:37:39.340Z,9.18
2023-04-16T07:40:07.107Z,8.80
2023-04-16T07:42:34.541Z,9.30
2023-04-16T07:45:01.923Z,8.30
2023-04-16T07:47:29.435Z,8.38
2023-04-16T07:49:56.854Z,8.02
2023-04-16T07:52:24.343Z,6.95
2023-04-16T07:54:51.927Z,7.47
2023-04-16T07:57:19.264Z,6.70
2023-04-16T07:59:46.610Z,6.75
2023-04-16T08:02:16.438Z,6.68
2023-04-16T08:04:44.115Z,7.20
2023-04-16T08:07:11.693Z,5.40
2023-04-16T08:09:47.662Z,5.05
2023-04-16T08:12:15.083Z,5.78
2023-04-16T08:14:42.511Z,6.00
2023-04-16T08:17:09.915Z,5.93
2023-04-16T08:19:37.409Z,5.40
2023-04-16T08:22:04.829Z,5.43
2023-04-16T08:24:32.346Z,5.38
2023-04-16T08:27:08.088Z,5.35
2023-04-16T08:29:45.480Z,5.95
2023-04-16T08:32:12.892Z,6.22
2023-04-16T08:34:40.931Z,6.03
2023-04-16T08:37:08.339Z,5.35
2023-04-16T08:39:36.423Z,5.05
2023-04-16T08:42:06.104Z,5.30
2023-04-16T08:44:35.267Z,5.60
2023-04-16T08:47:03.458Z,5.13
2023-04-16T08:49:33.215Z,5.13
2023-04-16T08:52:01.077Z,5.30
2023-04-16T08:54:47.261Z,5.03
2023-04-16T08:57:24.639Z,6.65
2023-04-16T08:59:52.356Z,4.95
2023-04-16T09:02:19.966Z,4.53
2023-04-16T09:04:47.754Z,4.28
2023-04-16T09:07:15.402Z,4.45
2023-04-16T09:09:44.387Z,4.57
2023-04-16T09:12:11.985Z,4.68
2023-04-16T09:14:42.109Z,4.90
2023-04-16T09:17:09.855Z,6.97
2023-04-16T09:19:37.375Z,4.10
2023-04-16T09:22:04.693Z,4.55
2023-04-16T09:24:32.332Z,6.20
2023-04-16T09:27:00.536Z,5.82
2023-04-16T09:29:41.220Z,5.55
2023-04-16T09:32:09.650Z,5.20
2023-04-16T09:34:54.561Z,5.03
2023-04-16T09:37:21.984Z,4.82
2023-04-16T09:39:59.572Z,5.90
2023-04-16T09:42:28.984Z,4.35
2023-04-16T09:44:59.421Z,4.57
2023-04-16T09:47:38.949Z,5.47
2023-04-16T09:50:06.644Z,4.75
2023-04-16T09:52:37.006Z,4.22
2023-04-16T09:55:04.485Z,4.10
2023-04-16T09:57:31.888Z,4.32
2023-04-16T10:00:03.787Z,4.00
2023-04-16T10:02:34.623Z,3.65
2023-04-16T10:05:03.209Z,6.10
2023-04-16T10:07:33.979Z,3.28
2023-04-16T10:10:01.564Z,2.97
2023-04-16T10:12:29.537Z,3.42
2023-04-16T10:14:56.870Z,3.10
2023-04-16T10:17:24.195Z,4.97
2023-04-16T10:19:51.963Z,2.90
2023-04-16T10:22:19.436Z,3.05
2023-04-16T10:24:47.575Z,3.08
2023-04-16T10:27:14.973Z,2.53
2023-04-16T10:29:42.403Z,2.63
2023-04-16T10:32:09.746Z,2.60
2023-04-16T10:34:37.212Z,2.80
2023-04-16T10:37:04.655Z,5.55
2023-04-16T10:39:34.366Z,2.10
2023-04-16T10:42:08.698Z,2.95
2023-04-16T10:44:36.604Z,3.42
2023-04-16T10:47:04.061Z,2.95
2023-04-16T10:49:31.478Z,4.65
2023-04-16T10:52:00.245Z,3.40
2023-04-16T10:54:28.594Z,3.53
2023-04-16T10:57:08.199Z,2.83
2023-04-16T10:59:36.391Z,2.85
2023-04-16T11:02:14.362Z,5.40
2023-04-16T11:04:45.918Z,2.50
2023-04-16T11:07:16.589Z,3.63
2023-04-16T11:09:50.993Z,3.08
2023-04-16T11:12:19.738Z,2.83
2023-04-16T11:14:48.491Z,3.00
2023-04-16T11:17:16.064Z,2.60
2023-04-16T11:19:44.119Z,3.45
2023-04-16T11:22:17.247Z,2.88
2023-04-16T11:24:45.692Z,3.88
2023-04-16T11:27:13.958Z,2.85
2023-04-16T11:29:41.546Z,2.88
2023-04-16T11:32:10.409Z,2.40
2023-04-16T11:34:45.934Z,2.40
2023-04-16T11:37:13.408Z,2.92
2023-04-16T11:39:51.048Z,2.55
2023-04-16T11:42:28.609Z,2.03
2023-04-16T11:44:56.941Z,2.63
2023-04-16T11:47:25.169Z,2.30
2023-04-16T11:49:52.944Z,2.67
2023-04-16T11:52:27.402Z,2.53
2023-04-16T11:54:54.824Z,2.35
2023-04-16T11:57:31.380Z,2.80
2023-04-16T12:00:03.054Z,4.40
2023-04-16T12:02:44.710Z,2.85
2023-04-16T12:05:28.399Z,3.42
2023-04-16T12:07:55.897Z,3.03
2023-04-16T12:10:23.583Z,2.42
2023-04-16T12:12:51.131Z,2.42
2023-04-16T12:15:18.585Z,2.70
2023-04-16T12:17:46.188Z,2.03
2023-04-16T12:20:15.305Z,2.50
2023-04-16T12:22:47.532Z,2.38
2023-04-16T12:25:16.767Z,2.20
2023-04-16T12:27:45.552Z,2.67
2023-04-16T12:30:13.953Z,2.85
2023-04-16T12:32:42.114Z,2.55
2023-04-16T12:35:10.429Z,3.20
2023-04-16T12:37:38.522Z,2.40
2023-04-16T12:40:06.982Z,2.65
2023-04-16T12:42:37.763Z,2.17
2023-04-16T12:45:06.947Z,2.77
2023-04-16T12:47:34.478Z,1.83
2023-04-16T12:50:01.965Z,2.20
2023-04-16T12:52:29.405Z,2.00
2023-04-16T12:54:56.884Z,3.15
2023-04-16T12:57:28.842Z,2.10
2023-04-16T12:59:57.302Z,2.40
2023-04-16T13:02:25.718Z,2.65
2023-04-16T13:04:53.713Z,2.47
2023-04-16T13:07:21.512Z,2.55
2023-04-16T13:09:48.981Z,3.78
2023-04-16T13:12:16.849Z,4.30
2023-04-16T13:14:45.132Z,2.53
2023-04-16T13:17:12.594Z,2.15
2023-04-16T13:19:40.341Z,1.90
2023-04-16T13:22:07.713Z,2.05
2023-04-16T13:24:41.391Z,1.95
2023-04-16T13:27:08.847Z,2.10
2023-04-16T13:29:37.019Z,2.00
2023-04-16T13:32:04.771Z,1.80
2023-04-16T13:34:34.634Z,2.05
2023-04-16T13:37:04.804Z,2.40
2023-04-16T13:39:32.306Z,2.10
2023-04-16T13:42:00.286Z,2.00
2023-04-16T13:44:27.722Z,1.95
2023-04-16T13:46:56.162Z,1.83
2023-04-16T13:49:23.766Z,2.10
2023-04-16T13:51:51.194Z,2.00
2023-04-16T13:54:18.574Z,2.50
2023-04-16T13:56:45.999Z,2.20
2023-04-16T13:59:15.584Z,2.35
2023-04-16T14:01:43.224Z,2.15
2023-04-16T14:04:10.708Z,1.95
2023-04-16T14:06:38.165Z,1.90
2023-04-16T14:09:05.582Z,2.15
2023-04-16T14:11:32.936Z,2.35
2023-04-16T14:14:00.260Z,2.05
2023-04-16T14:16:27.832Z,2.42
2023-04-16T14:18:55.312Z,2.03
2023-04-16T14:21:22.719Z,2.30
2023-04-16T14:23:50.369Z,2.03
2023-04-16T14:26:18.754Z,1.67
2023-04-16T14:28:46.400Z,2.92
2023-04-16T14:31:13.913Z,2.03
2023-04-16T14:33:41.271Z,2.40
2023-04-16T14:36:08.964Z,3.45
2023-04-16T14:38:36.886Z,2.63
2023-04-16T14:41:04.232Z,2.17
2023-04-16T14:43:31.545Z,2.90
2023-04-16T14:46:00.254Z,2.47
2023-04-16T14:48:27.812Z,1.80
2023-04-16T14:50:55.428Z,2.03
2023-04-16T14:53:23.660Z,2.60
2023-04-16T14:55:51.277Z,2.15
2023-04-16T14:58:18.924Z,2.70
2023-04-16T15:00:46.301Z,2.47
2023-04-16T15:03:14.799Z,2.00
2023-04-16T15:05:42.667Z,1.85
2023-04-16T15:08:10.038Z,2.00
2023-04-16T15:10:38.085Z,2.70
2023-04-16T15:13:05.847Z,3.42
2023-04-16T15:15:33.197Z,4.85
2023-04-16T15:18:00.723Z,6.22
2023-04-16T15:20:28.128Z,4.13
2023-04-16T15:22:55.461Z,4.35
2023-04-16T15:25:24.626Z,4.10
2023-04-16T15:27:52.384Z,4.10
2023-04-16T15:30:19.928Z,3.70
2023-04-16T15:32:47.660Z,3.80
2023-04-16T15:35:15.476Z,2.20
2023-04-16T15:37:42.911Z,2.20
2023-04-16T15:40:13.469Z,3.47
2023-04-16T15:42:44.233Z,2.10
2023-04-16T15:45:11.858Z,2.65
2023-04-16T15:47:41.611Z,2.17
2023-04-16T15:50:09.900Z,2.50
2023-04-16T15:52:38.670Z,2.85
2023-04-16T15:55:06.395Z,3.83
2023-04-16T15:57:33.670Z,2.80
2023-04-16T16:00:06.321Z,2.95
2023-04-16T16:02:34.879Z,2.85
2023-04-16T16:05:03.314Z,2.85
2023-04-16T16:07:30.734Z,2.63
2023-04-16T16:09:58.361Z,2.97
2023-04-16T16:12:25.777Z,6.55
2023-04-16T16:14:53.280Z,3.03
2023-04-16T16:17:20.718Z,1.75
2023-04-16T16:19:48.147Z,1.90
2023-04-16T16:22:20.216Z,2.33
2023-04-16T16:24:50.894Z,1.88
2023-04-16T16:27:18.759Z,3.33
2023-04-16T16:29:46.260Z,2.05
2023-04-16T16:32:13.736Z,1.90
2023-04-16T16:34:41.097Z,1.73
2023-04-16T16:37:08.410Z,1.65
2023-04-16T16:39:38.377Z,1.27
2023-04-16T16:42:06.244Z,1.70
2023-04-16T16:44:33.603Z,1.88
2023-04-16T16:47:01.109Z,1.80
2023-04-16T16:49:28.541Z,1.88
2023-04-16T16:51:55.911Z,2.03
2023-04-16T16:54:23.224Z,2.65
2023-04-16T16:56:50.555Z,2.60
2023-04-16T16:59:18.045Z,2.08
2023-04-16T17:01:45.549Z,2.25
2023-04-16T17:04:12.981Z,1.83
2023-04-16T17:06:41.063Z,2.20
2023-04-16T17:09:11.002Z,2.70
2023-04-16T17:11:39.052Z,2.25
2023-04-16T17:14:06.383Z,5.30
2023-04-16T17:16:33.783Z,5.10
2023-04-16T17:19:01.322Z,6.57
2023-04-16T17:21:28.683Z,5.28
2023-04-16T17:23:58.087Z,4.13
2023-04-16T17:26:25.725Z,3.70
2023-04-16T17:28:54.111Z,4.63
2023-04-16T17:31:21.910Z,4.32
2023-04-16T17:33:51.088Z,4.25
2023-04-16T17:36:23.022Z,4.93
2023-04-16T17:41:18.020Z,5.25
2023-04-16T17:43:48.005Z,4.80
2023-04-16T17:46:16.548Z,6.82
2023-04-16T17:48:44.560Z,6.18
2023-04-16T17:51:12.731Z,5.95
2023-04-16T17:53:42.579Z,5.50
2023-04-16T17:56:10.426Z,5.40
2023-04-16T17:58:37.924Z,4.80
2023-04-16T18:01:06.068Z,5.05
2023-04-16T18:03:34.031Z,4.57
2023-04-16T18:06:01.709Z,4.80
2023-04-16T18:08:29.165Z,6.43
2023-04-16T18:10:56.896Z,6.38
2023-04-16T18:13:24.696Z,4.13
2023-04-16T18:15:52.977Z,3.55
2023-04-16T18:18:21.301Z,2.80
2023-04-16T18:20:48.816Z,3.00
2023-04-16T18:23:16.237Z,2.00
2023-04-16T18:25:44.602Z,2.80
2023-04-16T18:28:14.013Z,2.10
2023-04-16T18:30:42.591Z,4.35
2023-04-16T18:33:42.711Z,3.60
2023-04-16T18:36:04.864Z,5.38
2023-04-16T18:38:32.476Z,6.53
2023-04-16T18:41:01.908Z,5.95
2023-04-16T18:43:31.399Z,5.18
2023-04-16T18:45:58.765Z,6.88
2023-04-16T18:48:26.224Z,8.20
2023-04-16T18:50:53.831Z,6.65
2023-04-16T18:53:21.337Z,9.13
2023-04-16T18:55:53.608Z,15.77
2023-04-16T18:58:21.290Z,17.55
2023-04-16T19:00:48.656Z,21.98
2023-04-16T19:03:16.183Z,16.00
2023-04-16T19:05:43.625Z,13.45
2023-04-16T19:08:10.949Z,14.75
2023-04-16T19:10:38.352Z,9.32
2023-04-16T19:13:05.966Z,12.85
2023-04-16T19:15:34.800Z,11.02
2023-04-16T19:18:02.862Z,9.85
2023-04-16T19:20:30.348Z,8.55
2023-04-16T19:22:58.145Z,6.43
2023-04-16T19:25:25.490Z,5.40
2023-04-16T19:27:53.289Z,5.20
2023-04-16T19:30:20.712Z,4.68
2023-04-16T19:32:48.211Z,5.00
2023-04-16T19:35:15.663Z,6.35
2023-04-16T19:37:43.736Z,5.85
2023-04-16T19:40:11.518Z,6.28
2023-04-16T19:42:38.972Z,4.90
2023-04-16T19:45:06.733Z,5.57
2023-04-16T19:47:34.170Z,4.43
2023-04-16T19:50:01.514Z,4.05
2023-04-16T19:52:28.921Z,5.00
2023-04-16T19:54:56.461Z,4.25
2023-04-16T19:57:23.900Z,5.00
2023-04-16T19:59:51.691Z,4.57
2023-04-16T20:02:19.859Z,4.90
2023-04-16T20:04:48.630Z,4.72
2023-04-16T20:07:16.280Z,5.22
2023-04-16T20:09:43.601Z,6.65
2023-04-16T20:12:11.175Z,7.05
2023-04-16T20:14:38.640Z,5.93
2023-04-16T20:17:09.802Z,5.40
2023-04-16T20:19:40.900Z,6.05
2023-04-16T20:22:08.780Z,5.28
2023-04-16T20:24:38.475Z,8.02
2023-04-16T20:27:06.373Z,5.10
2023-04-16T20:29:34.131Z,4.78
2023-04-16T20:32:01.704Z,4.95
2023-04-16T20:34:29.026Z,5.10
2023-04-16T20:36:57.951Z,5.38
2023-04-16T20:39:27.247Z,4.18
2023-04-16T20:41:58.113Z,3.55
2023-04-16T20:44:26.185Z,3.50
2023-04-16T20:46:56.230Z,3.55
2023-04-16T20:49:25.016Z,3.78
2023-04-16T20:51:52.386Z,3.22
2023-04-16T20:54:19.734Z,2.67
2023-04-16T20:56:47.208Z,3.08
2023-04-16T20:59:14.615Z,3.00
2023-04-16T21:01:42.014Z,3.00
2023-04-16T21:04:09.658Z,3.08
2023-04-16T21:06:43.001Z,2.72
2023-04-16T21:09:10.954Z,2.72
2023-04-16T21:11:38.540Z,2.90
2023-04-16T21:14:06.727Z,2.83
2023-04-16T21:16:34.156Z,3.15
2023-04-16T21:19:01.996Z,5.00
2023-04-16T21:21:29.287Z,2.83
2023-04-16T21:23:56.664Z,3.72
2023-04-16T21:26:23.972Z,3.00
2023-04-16T21:28:51.926Z,2.85
2023-04-16T21:31:20.153Z,2.88
2023-04-16T21:33:47.525Z,2.90
2023-04-16T21:36:14.815Z,3.50
2023-04-16T21:38:42.368Z,3.20
2023-04-16T21:41:09.724Z,2.67
2023-04-16T21:43:37.142Z,2.85
2023-04-16T21:46:04.504Z,2.88
2023-04-16T21:48:31.923Z,2.55
2023-04-16T21:51:00.968Z,3.83
2023-04-16T21:53:28.324Z,2.55
2023-04-16T21:55:55.629Z,3.00
2023-04-16T21:58:22.984Z,2.70
2023-04-16T22:00:50.437Z,2.47
2023-04-16T22:03:18.615Z,3.00
2023-04-16T22:05:46.220Z,2.88
2023-04-16T22:08:23.882Z,2.63
2023-04-16T22:10:52.178Z,2.78
2023-04-16T22:13:19.533Z,4.13
2023-04-16T22:15:46.935Z,2.90
2023-04-16T22:18:14.268Z,3.05
2023-04-16T22:20:41.633Z,2.60
2023-04-16T22:23:08.985Z,3.03
2023-04-16T22:25:36.362Z,3.78
2023-04-16T22:28:03.727Z,3.05
2023-04-16T22:30:31.063Z,3.80
2023-04-16T22:32:58.491Z,8.93
2023-04-16T22:35:25.928Z,3.70
2023-04-16T22:37:53.191Z,4.10
2023-04-16T22:40:20.483Z,4.00
2023-04-16T22:42:47.784Z,3.05
2023-04-16T22:45:15.170Z,4.68
2023-04-16T22:47:43.126Z,5.60
2023-04-16T22:50:10.768Z,3.15
2023-04-16T22:52:38.079Z,3.38
2023-04-16T22:55:05.632Z,3.00
2023-04-16T22:57:33.196Z,3.67
2023-04-16T23:00:00.478Z,3.35
2023-04-16T23:02:27.963Z,3.35
2023-04-16T23:04:55.312Z,4.00
2023-04-16T23:07:22.602Z,3.75
2023-04-16T23:09:50.296Z,3.92
2023-04-16T23:12:17.628Z,3.60
2023-04-16T23:14:46.827Z,4.75
2023-04-16T23:17:14.190Z,3.92
2023-04-16T23:19:41.867Z,5.47
2023-04-16T23:22:09.393Z,4.00
2023-04-16T23:24:36.774Z,5.00
2023-04-16T23:27:04.141Z,4.63
2023-04-16T23:29:32.416Z,4.28
2023-04-16T23:31:59.894Z,6.97
2023-04-16T23:34:27.400Z,4.28
2023-04-16T23:36:54.693Z,4.07
2023-04-16T23:39:22.111Z,3.97
2023-04-16T23:41:49.498Z,5.00
2023-04-16T23:44:16.878Z,6.78
2023-04-16T23:46:44.211Z,4.50
2023-04-16T23:49:11.766Z,3.80
2023-04-16T23:51:39.234Z,3.38
2023-04-16T23:54:06.600Z,3.42
2023-04-16T23:56:34.223Z,4.90
2023-04-16T23:59:01.569Z,4.03
